createdAt,value
2023-05-17T00:02:01.813Z,2.50
2023-05-17T00:04:30.514Z,2.75
2023-05-17T00:06:58.942Z,2.33
2023-05-17T00:09:28.946Z,2.00
2023-05-17T00:11:57.345Z,2.58
2023-05-17T00:14:25.825Z,2.38
2023-05-17T00:16:54.375Z,2.28
2023-05-17T00:19:22.901Z,2.03
2023-05-17T00:21:51.491Z,1.95
2023-05-17T00:24:19.892Z,2.35
2023-05-17T00:26:49.720Z,2.03
2023-05-17T00:29:18.141Z,2.17
2023-05-17T00:31:46.566Z,1.88
2023-05-17T00:34:14.938Z,2.42
2023-05-17T00:36:43.333Z,2.10
2023-05-17T00:39:11.743Z,2.13
2023-05-17T00:41:40.167Z,1.60
2023-05-17T00:44:10.020Z,1.70
2023-05-17T00:46:38.391Z,1.85
2023-05-17T00:49:06.894Z,1.60
2023-05-17T00:51:35.931Z,1.50
2023-05-17T00:54:06.413Z,1.75
2023-05-17T00:56:34.999Z,2.20
2023-05-17T00:59:05.653Z,1.88
2023-05-17T01:01:36.893Z,2.05
2023-05-17T01:04:05.687Z,2.00
2023-05-17T01:06:34.581Z,1.65
2023-05-17T01:09:03.248Z,1.83
2023-05-17T01:11:43.617Z,1.67
2023-05-17T01:14:34.833Z,1.73
2023-05-17T01:17:13.561Z,1.73
2023-05-17T01:20:09.432Z,1.70
2023-05-17T01:22:52.988Z,2.03
2023-05-17T01:25:54.002Z,1.63
2023-05-17T01:28:26.016Z,1.42
2023-05-17T01:30:57.625Z,1.30
2023-05-17T01:33:29.250Z,1.50
2023-05-17T01:35:57.704Z,1.38
2023-05-17T01:38:26.244Z,1.33
2023-05-17T01:41:09.065Z,1.83
2023-05-17T01:43:49.255Z,1.33
2023-05-17T01:46:25.987Z,1.48
2023-05-17T01:49:01.978Z,1.30
2023-05-17T01:51:38.236Z,1.50
2023-05-17T01:54:12.232Z,1.15
2023-05-17T01:56:49.298Z,1.35
2023-05-17T01:59:25.370Z,1.55
2023-05-17T02:01:56.584Z,1.40
2023-05-17T02:04:25.048Z,1.60
2023-05-17T02:06:53.492Z,1.60
2023-05-17T02:09:21.929Z,1.10
2023-05-17T02:11:50.412Z,1.70
2023-05-17T02:14:20.159Z,1.75
2023-05-17T02:16:48.584Z,1.23
2023-05-17T02:19:17.074Z,1.55
2023-05-17T02:21:45.519Z,1.27
2023-05-17T02:24:13.957Z,1.52
2023-05-17T02:26:43.410Z,1.58
2023-05-17T02:29:12.204Z,1.52
2023-05-17T02:31:42.217Z,1.70
2023-05-17T02:34:10.671Z,2.00
2023-05-17T02:36:40.428Z,1.67
2023-05-17T02:39:08.874Z,2.28
2023-05-17T02:41:37.266Z,2.03
2023-05-17T02:44:05.734Z,1.88
2023-05-17T02:46:36.318Z,2.08
2023-05-17T02:49:07.464Z,2.10
2023-05-17T02:51:35.825Z,2.05
2023-05-17T02:54:04.235Z,2.28
2023-05-17T02:56:33.026Z,2.70
2023-05-17T02:59:02.330Z,2.28
2023-05-17T03:01:30.791Z,2.67
2023-05-17T03:03:59.504Z,1.95
2023-05-17T03:06:29.402Z,2.58
2023-05-17T03:08:57.855Z,2.40
2023-05-17T03:11:26.333Z,3.03
2023-05-17T03:13:54.725Z,2.17
2023-05-17T03:16:23.149Z,2.40
2023-05-17T03:18:51.667Z,2.38
2023-05-17T03:21:20.143Z,2.75
2023-05-17T03:23:49.922Z,2.10
2023-05-17T03:26:19.243Z,2.20
2023-05-17T03:28:47.795Z,2.38
2023-05-17T03:31:17.533Z,2.55
2023-05-17T03:33:46.538Z,2.67
2023-05-17T03:36:15.192Z,2.00
2023-05-17T03:38:44.015Z,2.22
2023-05-17T03:41:14.080Z,2.50
2023-05-17T03:43:42.514Z,2.60
2023-05-17T03:46:11.470Z,2.58
2023-05-17T03:48:39.936Z,2.35
2023-05-17T03:51:08.509Z,3.05
2023-05-17T03:53:41.216Z,2.40
2023-05-17T03:56:09.851Z,2.75
2023-05-17T03:58:39.683Z,2.40
2023-05-17T04:01:08.083Z,2.55
2023-05-17T04:03:37.462Z,2.72
2023-05-17T04:06:07.495Z,2.40
2023-05-17T04:08:36.567Z,2.55
2023-05-17T04:11:10.778Z,2.10
2023-05-17T04:13:40.934Z,2.30
2023-05-17T04:16:09.992Z,2.40
2023-05-17T04:18:39.785Z,2.15
2023-05-17T04:21:08.411Z,2.38
2023-05-17T04:23:36.972Z,2.00
2023-05-17T04:26:06.201Z,2.65
2023-05-17T04:28:35.393Z,3.05
2023-05-17T04:31:09.305Z,3.08
2023-05-17T04:33:38.333Z,2.60
2023-05-17T04:36:07.596Z,2.65
2023-05-17T04:38:36.104Z,2.25
2023-05-17T04:41:05.170Z,2.45
2023-05-17T04:43:34.427Z,2.38
2023-05-17T04:46:05.635Z,2.35
2023-05-17T04:48:34.637Z,3.08
2023-05-17T04:51:05.200Z,2.38
2023-05-17T04:53:33.862Z,3.30
2023-05-17T04:56:02.266Z,2.58
2023-05-17T04:58:31.950Z,1.95
2023-05-17T05:01:00.401Z,2.03
2023-05-17T05:03:30.311Z,2.25
2023-05-17T05:05:58.830Z,2.13
2023-05-17T05:08:27.405Z,2.42
2023-05-17T05:10:55.816Z,2.15
2023-05-17T05:13:24.260Z,2.58
2023-05-17T05:15:52.735Z,1.80
2023-05-17T05:18:21.335Z,2.00
2023-05-17T05:20:51.495Z,1.92
2023-05-17T05:23:19.886Z,2.90
2023-05-17T05:25:48.371Z,2.10
2023-05-17T05:28:16.827Z,2.72
2023-05-17T05:30:45.382Z,2.63
2023-05-17T05:33:13.934Z,2.95
2023-05-17T05:35:42.400Z,2.90
2023-05-17T05:38:12.199Z,2.28
2023-05-17T05:40:40.744Z,2.15
2023-05-17T05:43:09.148Z,2.22
2023-05-17T05:45:37.623Z,2.50
2023-05-17T05:48:08.895Z,2.50
2023-05-17T05:50:37.412Z,2.80
2023-05-17T05:53:17.092Z,2.00
2023-05-17T05:55:47.974Z,2.10
2023-05-17T05:58:16.456Z,2.92
2023-05-17T06:00:45.000Z,3.72
2023-05-17T06:03:13.347Z,3.10
2023-05-17T06:05:41.958Z,3.38
2023-05-17T06:08:10.575Z,2.88
2023-05-17T06:10:39.103Z,3.95
2023-05-17T06:13:09.030Z,3.40
2023-05-17T06:15:37.913Z,3.83
2023-05-17T06:18:06.850Z,3.40
2023-05-17T06:20:35.406Z,2.72
2023-05-17T06:23:05.247Z,3.60
2023-05-17T06:25:33.758Z,3.50
2023-05-17T06:28:03.927Z,2.67
2023-05-17T06:30:33.822Z,3.28
2023-05-17T06:33:02.506Z,3.33
2023-05-17T06:35:37.513Z,3.10
2023-05-17T06:38:09.165Z,4.05
2023-05-17T06:40:37.690Z,3.72
2023-05-17T06:43:06.561Z,3.10
2023-05-17T06:45:36.464Z,3.63
2023-05-17T06:48:05.221Z,3.40
2023-05-17T06:50:33.786Z,3.45
2023-05-17T06:53:02.332Z,3.35
2023-05-17T06:55:31.873Z,4.05
2023-05-17T06:58:00.815Z,4.00
2023-05-17T07:00:29.748Z,3.75
2023-05-17T07:03:02.716Z,4.15
2023-05-17T07:05:31.472Z,3.35
2023-05-17T07:08:00.905Z,4.90
2023-05-17T07:10:29.345Z,3.53
2023-05-17T07:13:00.588Z,4.63
2023-05-17T07:15:29.377Z,5.05
2023-05-17T07:17:59.810Z,4.88
2023-05-17T07:20:28.334Z,6.22
2023-05-17T07:22:57.263Z,4.95
2023-05-17T07:25:25.879Z,5.90
2023-05-17T07:27:54.314Z,5.43
2023-05-17T07:30:22.834Z,4.68
2023-05-17T07:32:51.902Z,4.40
2023-05-17T07:35:21.995Z,4.57
2023-05-17T07:37:50.690Z,3.33
2023-05-17T07:40:19.594Z,4.60
2023-05-17T07:42:48.030Z,4.88
2023-05-17T07:45:16.656Z,4.07
2023-05-17T07:47:45.179Z,3.20
2023-05-17T07:50:13.962Z,4.45
2023-05-17T07:52:43.753Z,4.18
2023-05-17T07:55:12.479Z,4.25
2023-05-17T07:57:41.469Z,4.40
2023-05-17T08:00:12.873Z,4.78
2023-05-17T08:02:41.571Z,4.07
2023-05-17T08:05:11.384Z,3.60
2023-05-17T08:07:39.962Z,3.60
2023-05-17T08:10:11.304Z,4.40
2023-05-17T08:12:40.335Z,3.35
2023-05-17T08:15:10.545Z,3.90
2023-05-17T08:17:39.129Z,3.90
2023-05-17T08:20:09.867Z,4.22
2023-05-17T08:22:38.379Z,3.45
2023-05-17T08:25:09.595Z,4.72
2023-05-17T08:27:38.085Z,3.63
2023-05-17T08:30:11.943Z,3.38
2023-05-17T08:32:45.033Z,4.97
2023-05-17T08:35:14.042Z,2.97
2023-05-17T08:37:43.053Z,3.88
2023-05-17T08:40:14.931Z,3.15
2023-05-17T08:42:43.840Z,3.33
2023-05-17T08:45:13.084Z,4.60
2023-05-17T08:47:43.234Z,2.78
2023-05-17T08:50:13.006Z,3.25
2023-05-17T08:52:44.895Z,3.25
2023-05-17T08:55:16.429Z,3.47
2023-05-17T08:57:45.978Z,3.35
2023-05-17T09:00:20.892Z,3.67
2023-05-17T09:02:49.416Z,3.97
2023-05-17T09:05:18.990Z,3.60
2023-05-17T09:07:49.489Z,4.03
2023-05-17T09:10:19.616Z,3.28
2023-05-17T09:12:48.439Z,3.42
2023-05-17T09:15:19.247Z,3.53
2023-05-17T09:17:54.185Z,4.00
2023-05-17T09:20:34.057Z,3.25
2023-05-17T09:23:02.968Z,3.58
2023-05-17T09:25:33.284Z,3.47
2023-05-17T09:28:04.822Z,4.03
2023-05-17T09:30:35.113Z,3.47
2023-05-17T09:33:08.274Z,3.67
2023-05-17T09:35:38.640Z,3.28
2023-05-17T09:38:09.724Z,2.92
2023-05-17T09:40:44.301Z,3.95
2023-05-17T09:43:13.876Z,2.47
2023-05-17T09:45:42.580Z,3.17
2023-05-17T09:48:15.891Z,2.67
2023-05-17T09:50:48.738Z,2.60
2023-05-17T09:53:27.811Z,3.40
2023-05-17T09:56:00.011Z,3.75
2023-05-17T09:58:29.878Z,2.83
2023-05-17T10:01:01.919Z,3.13
2023-05-17T10:03:35.620Z,3.58
2023-05-17T10:06:07.468Z,4.03
2023-05-17T10:08:36.703Z,3.40
2023-05-17T10:11:10.525Z,3.17
2023-05-17T10:13:46.817Z,3.85
2023-05-17T10:16:16.129Z,2.45
2023-05-17T10:18:45.395Z,3.55
2023-05-17T10:21:14.098Z,3.47
2023-05-17T10:23:44.302Z,3.80
2023-05-17T10:26:16.554Z,3.92
2023-05-17T10:28:46.513Z,4.55
2023-05-17T10:31:15.972Z,3.10
2023-05-17T10:33:47.601Z,3.20
2023-05-17T10:36:19.378Z,2.72
2023-05-17T10:38:48.718Z,3.33
2023-05-17T10:41:21.796Z,2.90
2023-05-17T10:43:50.861Z,3.13
2023-05-17T10:46:21.759Z,2.65
2023-05-17T10:48:52.160Z,2.92
2023-05-17T10:51:25.640Z,3.03
2023-05-17T10:54:12.038Z,2.90
2023-05-17T10:56:50.904Z,2.80
2023-05-17T10:59:23.378Z,2.40
2023-05-17T11:02:01.681Z,2.70
2023-05-17T11:04:36.824Z,2.75
2023-05-17T11:07:25.986Z,2.45
2023-05-17T11:09:57.185Z,3.00
2023-05-17T11:12:38.472Z,2.63
2023-05-17T11:15:11.101Z,3.00
2023-05-17T11:17:51.771Z,2.95
2023-05-17T11:20:37.921Z,2.30
2023-05-17T11:23:08.744Z,2.80
2023-05-17T11:25:39.688Z,3.53
2023-05-17T11:28:11.319Z,3.20
2023-05-17T11:30:51.136Z,2.75
2023-05-17T11:33:32.352Z,2.50
2023-05-17T11:36:07.474Z,3.83
2023-05-17T11:38:35.895Z,3.83
2023-05-17T11:43:53.474Z,3.05
2023-05-17T11:46:24.264Z,3.25
2023-05-17T11:48:54.394Z,3.03
2023-05-17T11:51:24.914Z,3.53
2023-05-17T11:53:56.692Z,3.63
2023-05-17T11:56:32.441Z,3.00
2023-05-17T11:59:12.181Z,3.92
2023-05-17T12:01:48.215Z,4.00
2023-05-17T12:04:25.818Z,3.55
2023-05-17T12:06:55.527Z,3.47
2023-05-17T12:09:26.254Z,3.55
2023-05-17T12:11:55.642Z,3.17
2023-05-17T12:14:26.083Z,2.92
2023-05-17T12:16:57.968Z,2.58
2023-05-17T12:19:29.816Z,2.67
2023-05-17T12:22:09.438Z,2.63
2023-05-17T12:24:42.427Z,2.28
2023-05-17T12:27:11.535Z,2.80
2023-05-17T12:29:42.078Z,3.10
2023-05-17T12:32:11.712Z,2.72
2023-05-17T12:34:41.906Z,3.25
2023-05-17T12:37:11.210Z,3.05
2023-05-17T12:39:40.493Z,2.92
2023-05-17T12:42:10.409Z,4.07
2023-05-17T12:44:39.039Z,3.25
2023-05-17T12:47:11.040Z,3.25
2023-05-17T12:49:40.939Z,3.45
2023-05-17T12:52:11.328Z,3.30
2023-05-17T12:54:41.966Z,3.08
2023-05-17T12:57:15.998Z,3.15
2023-05-17T12:59:49.573Z,2.95
2023-05-17T13:02:21.451Z,3.05
2023-05-17T13:04:50.068Z,2.50
2023-05-17T13:07:24.822Z,2.42
2023-05-17T13:09:53.382Z,3.28
2023-05-17T13:12:24.335Z,3.38
2023-05-17T13:14:54.924Z,2.70
2023-05-17T13:17:36.973Z,2.75
2023-05-17T13:20:10.562Z,3.20
2023-05-17T13:22:46.540Z,3.00
2023-05-17T13:25:15.955Z,3.67
2023-05-17T13:27:48.970Z,2.92
2023-05-17T13:30:18.206Z,4.07
2023-05-17T13:32:48.203Z,3.30
2023-05-17T13:35:16.770Z,3.28
2023-05-17T13:37:45.192Z,3.63
2023-05-17T13:40:15.222Z,2.78
2023-05-17T13:42:43.766Z,3.67
2023-05-17T13:45:13.837Z,3.17
2023-05-17T13:47:42.598Z,3.47
2023-05-17T13:50:16.009Z,3.10
2023-05-17T13:52:45.095Z,3.42
2023-05-17T13:55:13.644Z,3.65
2023-05-17T13:57:42.374Z,2.97
2023-05-17T14:00:12.665Z,3.83
2023-05-17T14:02:41.336Z,3.10
2023-05-17T14:05:10.634Z,2.72
2023-05-17T14:07:41.605Z,3.58
2023-05-17T14:10:12.261Z,4.10
2023-05-17T14:12:41.290Z,4.10
2023-05-17T14:15:12.284Z,4.45
2023-05-17T14:17:41.329Z,3.67
2023-05-17T14:20:11.893Z,3.95
2023-05-17T14:22:42.049Z,4.20
2023-05-17T14:25:12.011Z,3.70
2023-05-17T14:27:40.726Z,4.03
2023-05-17T14:30:12.157Z,4.28
2023-05-17T14:32:42.153Z,4.30
2023-05-17T14:35:11.906Z,4.30
2023-05-17T14:37:41.871Z,4.25
2023-05-17T14:40:12.349Z,5.43
2023-05-17T14:42:40.975Z,5.00
2023-05-17T14:45:10.473Z,4.78
2023-05-17T14:47:39.017Z,5.10
2023-05-17T14:50:09.042Z,4.70
2023-05-17T14:52:37.915Z,5.97
2023-05-17T14:55:09.893Z,5.13
2023-05-17T14:57:40.085Z,5.65
2023-05-17T15:00:11.443Z,5.57
2023-05-17T15:02:40.269Z,4.63
2023-05-17T15:05:10.734Z,4.82
2023-05-17T15:07:39.315Z,5.63
2023-05-17T15:10:13.000Z,4.63
2023-05-17T15:12:41.589Z,6.20
2023-05-17T15:15:11.546Z,5.15
2023-05-17T15:17:40.076Z,5.65
2023-05-17T15:20:11.291Z,6.97
2023-05-17T15:22:39.872Z,5.95
2023-05-17T15:25:10.316Z,6.82
2023-05-17T15:27:38.773Z,6.03
2023-05-17T15:30:11.324Z,5.07
2023-05-17T15:32:41.186Z,6.38
2023-05-17T15:35:10.944Z,6.03
2023-05-17T15:37:39.420Z,5.15
2023-05-17T15:40:11.981Z,6.20
2023-05-17T15:42:40.501Z,5.22
2023-05-17T15:45:10.912Z,6.18
2023-05-17T15:47:43.672Z,5.40
2023-05-17T15:50:12.851Z,5.78
2023-05-17T15:52:41.434Z,6.55
2023-05-17T15:55:12.868Z,6.28
2023-05-17T15:57:42.315Z,6.03
2023-05-17T16:00:12.574Z,5.70
2023-05-17T16:02:41.255Z,6.25
2023-05-17T16:05:10.666Z,5.90
2023-05-17T16:07:39.096Z,5.90
2023-05-17T16:10:11.372Z,5.25
2023-05-17T16:12:39.844Z,4.68
2023-05-17T16:15:10.297Z,5.15
2023-05-17T16:17:38.884Z,5.43
2023-05-17T16:20:09.417Z,4.97
2023-05-17T16:22:37.852Z,4.78
2023-05-17T16:25:07.469Z,6.28
2023-05-17T16:27:37.290Z,5.65
2023-05-17T16:30:07.256Z,6.03
2023-05-17T16:32:36.106Z,4.55
2023-05-17T16:35:04.859Z,5.15
2023-05-17T16:37:33.427Z,5.63
2023-05-17T16:40:02.083Z,5.60
2023-05-17T16:42:31.231Z,5.90
2023-05-17T16:45:01.257Z,6.68
2023-05-17T16:47:29.853Z,6.63
2023-05-17T16:49:58.664Z,6.70
2023-05-17T16:52:27.326Z,5.45
2023-05-17T16:55:02.979Z,6.75
2023-05-17T16:57:32.363Z,4.50
2023-05-17T17:00:02.403Z,4.03
2023-05-17T17:02:31.137Z,3.55
2023-05-17T17:04:59.645Z,4.82
2023-05-17T17:07:28.030Z,5.30
2023-05-17T17:09:56.519Z,4.75
2023-05-17T17:12:26.204Z,4.38
2023-05-17T17:14:54.863Z,5.85
2023-05-17T17:17:24.739Z,6.63
2023-05-17T17:19:53.424Z,5.38
2023-05-17T17:22:21.871Z,6.13
2023-05-17T17:24:50.513Z,5.88
2023-05-17T17:27:18.999Z,6.32
2023-05-17T17:29:47.529Z,6.30
2023-05-17T17:32:16.422Z,6.28
2023-05-17T17:34:46.453Z,6.57
2023-05-17T17:37:15.005Z,5.57
2023-05-17T17:39:43.433Z,6.45
2023-05-17T17:42:12.138Z,5.68
2023-05-17T17:44:40.636Z,8.00
2023-05-17T17:47:09.118Z,7.03
2023-05-17T17:49:37.561Z,6.22
2023-05-17T17:52:07.782Z,6.25
2023-05-17T17:54:36.304Z,6.07
2023-05-17T17:57:05.042Z,6.65
2023-05-17T17:59:33.549Z,5.50
2023-05-17T18:02:02.075Z,5.85
2023-05-17T18:04:30.547Z,5.68
2023-05-17T18:06:59.017Z,5.40
2023-05-17T18:09:28.861Z,6.88
2023-05-17T18:11:59.778Z,6.47
2023-05-17T18:14:28.188Z,6.38
2023-05-17T18:16:56.672Z,6.55
2023-05-17T18:19:25.483Z,5.00
2023-05-17T18:21:54.124Z,5.32
2023-05-17T18:24:22.723Z,6.78
2023-05-17T18:26:53.007Z,6.93
2023-05-17T18:29:22.113Z,6.10
2023-05-17T18:31:51.986Z,5.93
2023-05-17T18:34:21.182Z,5.47
2023-05-17T18:36:50.546Z,8.15
2023-05-17T18:39:19.960Z,5.13
2023-05-17T18:41:49.444Z,5.78
2023-05-17T18:44:20.109Z,5.90
2023-05-17T18:46:50.078Z,5.65
2023-05-17T18:49:19.050Z,5.10
2023-05-17T18:51:47.883Z,5.05
2023-05-17T18:54:16.994Z,4.28
2023-05-17T18:56:48.264Z,4.70
2023-05-17T18:59:18.760Z,4.30
2023-05-17T19:01:48.093Z,4.05
2023-05-17T19:04:16.740Z,4.45
2023-05-17T19:06:47.867Z,4.95
2023-05-17T19:09:18.541Z,4.20
2023-05-17T19:11:48.779Z,4.28
2023-05-17T19:14:19.758Z,4.32
2023-05-17T19:16:50.609Z,5.10
2023-05-17T19:19:22.528Z,4.28
2023-05-17T19:21:52.135Z,4.47
2023-05-17T19:24:21.585Z,4.68
2023-05-17T19:26:50.331Z,6.05
2023-05-17T19:29:21.274Z,3.78
2023-05-17T19:31:50.347Z,3.85
2023-05-17T19:34:19.355Z,3.83
2023-05-17T19:36:47.790Z,4.75
2023-05-17T19:39:18.615Z,4.00
2023-05-17T19:41:47.083Z,4.65
2023-05-17T19:44:17.040Z,4.40
2023-05-17T19:46:47.521Z,4.00
2023-05-17T19:49:17.173Z,4.47
2023-05-17T19:51:46.842Z,4.57
2023-05-17T19:54:15.590Z,4.65
2023-05-17T19:56:45.037Z,4.38
2023-05-17T19:59:16.194Z,5.03
2023-05-17T20:01:46.243Z,5.15
2023-05-17T20:04:16.242Z,5.05
2023-05-17T20:06:45.455Z,5.30
2023-05-17T20:09:14.476Z,5.40
2023-05-17T20:11:43.946Z,4.65
2023-05-17T20:14:13.808Z,5.25
2023-05-17T20:16:43.289Z,3.97
2023-05-17T20:19:14.031Z,5.30
2023-05-17T20:21:42.862Z,4.82
2023-05-17T20:24:11.619Z,4.47
2023-05-17T20:26:40.518Z,4.40
2023-05-17T20:29:10.369Z,4.22
2023-05-17T20:31:39.250Z,4.90
2023-05-17T20:34:07.759Z,5.63
2023-05-17T20:36:37.959Z,4.72
2023-05-17T20:39:06.669Z,5.45
2023-05-17T20:41:35.146Z,4.85
2023-05-17T20:44:03.781Z,3.80
2023-05-17T20:46:32.492Z,4.03
2023-05-17T20:49:02.232Z,5.93
2023-05-17T20:51:31.094Z,4.55
2023-05-17T20:54:00.940Z,5.35
2023-05-17T20:56:29.420Z,4.85
2023-05-17T20:58:57.838Z,4.68
2023-05-17T21:01:26.727Z,4.32
2023-05-17T21:03:55.374Z,4.43
2023-05-17T21:06:25.401Z,4.38
2023-05-17T21:08:54.021Z,4.13
2023-05-17T21:11:24.053Z,4.55
2023-05-17T21:13:52.682Z,4.70
2023-05-17T21:16:21.248Z,3.80
2023-05-17T21:18:49.657Z,4.55
2023-05-17T21:21:18.177Z,4.65
2023-05-17T21:23:46.622Z,4.25
2023-05-17T21:26:15.589Z,4.32
2023-05-17T21:28:45.459Z,5.05
2023-05-17T21:31:14.657Z,4.07
2023-05-17T21:33:43.119Z,4.03
2023-05-17T21:36:11.639Z,4.20
2023-05-17T21:38:40.059Z,5.32
2023-05-17T21:41:08.534Z,4.05
2023-05-17T21:43:36.989Z,3.90
2023-05-17T21:46:06.925Z,4.55
2023-05-17T21:48:35.436Z,3.90
2023-05-17T21:51:03.866Z,4.72
2023-05-17T21:53:32.343Z,4.72
2023-05-17T21:56:03.237Z,3.78
2023-05-17T21:58:32.753Z,3.90
2023-05-17T22:01:01.449Z,4.80
2023-05-17T22:03:31.480Z,3.78
2023-05-17T22:05:59.997Z,4.40
2023-05-17T22:08:28.589Z,4.43
2023-05-17T22:10:57.259Z,4.15
2023-05-17T22:13:26.947Z,4.30
2023-05-17T22:15:57.355Z,3.97
2023-05-17T22:18:27.536Z,3.78
2023-05-17T22:20:59.340Z,4.68
2023-05-17T22:23:28.223Z,3.80
2023-05-17T22:26:00.375Z,4.63
2023-05-17T22:28:29.485Z,5.07
2023-05-17T22:30:58.154Z,5.28
2023-05-17T22:33:29.705Z,4.82
2023-05-17T22:35:59.685Z,3.80
2023-05-17T22:38:28.040Z,3.58
2023-05-17T22:40:56.693Z,3.47
2023-05-17T22:43:28.183Z,4.53
2023-05-17T22:46:00.120Z,4.70
2023-05-17T22:48:30.496Z,4.18
2023-05-17T22:51:01.020Z,3.97
2023-05-17T22:53:31.225Z,4.07
2023-05-17T22:55:59.619Z,3.63
2023-05-17T22:58:28.156Z,3.67
2023-05-17T23:00:56.525Z,4.88
2023-05-17T23:03:25.009Z,3.92
2023-05-17T23:06:02.162Z,4.20
2023-05-17T23:08:32.941Z,4.05
2023-05-17T23:11:01.835Z,3.38
2023-05-17T23:13:30.358Z,3.92
2023-05-17T23:15:58.787Z,3.70
2023-05-17T23:18:28.002Z,3.65
2023-05-17T23:20:56.399Z,3.63
2023-05-17T23:23:24.790Z,3.78
2023-05-17T23:25:56.517Z,3.30
2023-05-17T23:28:25.231Z,3.35
2023-05-17T23:30:54.597Z,4.03
2023-05-17T23:33:23.017Z,3.03
2023-05-17T23:35:53.563Z,2.92
2023-05-17T23:38:22.337Z,3.20
2023-05-17T23:40:50.850Z,3.33
2023-05-17T23:43:20.811Z,4.43
2023-05-17T23:45:49.268Z,3.60
2023-05-17T23:48:20.767Z,3.42
2023-05-17T23:50:49.286Z,3.30
2023-05-17T23:53:18.676Z,3.30
2023-05-17T23:55:47.543Z,3.25
2023-05-17T23:58:16.056Z,3.40
